sensor_id;sensor_type;location;lat;lon;timestamp;pressure;altitude;pressure_sealevel;temperature;humidity
27210;BME280;14721;42.668;23.386;2023-03-18T00:02:17;95748.06;;;1.22;94.66
27210;BME280;14721;42.668;23.386;2023-03-18T00:04:43;95747.16;;;1.24;94.91
27210;BME280;14721;42.668;23.386;2023-03-18T00:07:09;95710.19;;;1.00;94.99
27210;BME280;14721;42.668;23.386;2023-03-18T00:09:35;95719.28;;;1.17;95.05
27210;BME280;14721;42.668;23.386;2023-03-18T00:12:01;95746.06;;;1.30;94.92
27210;BME280;14721;42.668;23.386;2023-03-18T00:14:26;95742.41;;;1.34;95.17
27210;BME280;14721;42.668;23.386;2023-03-18T00:16:52;95722.38;;;1.30;94.91
27210;BME280;14721;42.668;23.386;2023-03-18T00:19:18;95726.19;;;1.21;94.54
27210;BME280;14721;42.668;23.386;2023-03-18T00:21:44;95720.88;;;1.23;94.77
27210;BME280;14721;42.668;23.386;2023-03-18T00:24:10;95713.97;;;1.19;95.07
27210;BME280;14721;42.668;23.386;2023-03-18T00:26:37;95727.16;;;1.17;95.11
27210;BME280;14721;42.668;23.386;2023-03-18T00:29:03;95719.13;;;1.22;95.04
27210;BME280;14721;42.668;23.386;2023-03-18T00:31:29;95723.59;;;1.20;95.53
27210;BME280;14721;42.668;23.386;2023-03-18T00:33:55;95718.34;;;1.20;95.79
27210;BME280;14721;42.668;23.386;2023-03-18T00:36:21;95707.75;;;1.21;96.00
27210;BME280;14721;42.668;23.386;2023-03-18T00:38:51;95714.88;;;1.18;96.17
27210;BME280;14721;42.668;23.386;2023-03-18T00:41:26;95700.94;;;1.14;96.23
27210;BME280;14721;42.668;23.386;2023-03-18T00:43:53;95703.47;;;1.17;96.39
27210;BME280;14721;42.668;23.386;2023-03-18T00:46:30;95706.16;;;1.16;96.30
27210;BME280;14721;42.668;23.386;2023-03-18T00:48:58;95694.06;;;1.10;96.22
27210;BME280;14721;42.668;23.386;2023-03-18T00:51:26;95687.28;;;1.03;96.02
27210;BME280;14721;42.668;23.386;2023-03-18T00:53:58;95693.31;;;0.79;96.89
27210;BME280;14721;42.668;23.386;2023-03-18T00:56:28;95685.56;;;0.75;97.41
27210;BME280;14721;42.668;23.386;2023-03-18T00:58:55;95682.72;;;0.82;97.58
27210;BME280;14721;42.668;23.386;2023-03-18T01:01:22;95685.53;;;0.76;97.63
27210;BME280;14721;42.668;23.386;2023-03-18T01:03:48;95680.88;;;0.84;97.57
27210;BME280;14721;42.668;23.386;2023-03-18T01:06:18;95682.38;;;0.93;97.40
27210;BME280;14721;42.668;23.386;2023-03-18T01:08:44;95692.44;;;0.79;96.58
27210;BME280;14721;42.668;23.386;2023-03-18T01:11:10;95678.34;;;0.81;95.00
27210;BME280;14721;42.668;23.386;2023-03-18T01:13:36;95612.31;;;0.35;93.76
27210;BME280;14721;42.668;23.386;2023-03-18T01:16:03;95681.16;;;0.48;93.17
27210;BME280;14721;42.668;23.386;2023-03-18T01:18:30;95663.38;;;0.27;93.01
27210;BME280;14721;42.668;23.386;2023-03-18T01:20:57;95682.69;;;0.55;93.04
27210;BME280;14721;42.668;23.386;2023-03-18T01:23:23;95674.84;;;0.53;93.01
27210;BME280;14721;42.668;23.386;2023-03-18T01:25:49;95669.41;;;0.30;93.99
27210;BME280;14721;42.668;23.386;2023-03-18T01:28:15;95666.94;;;0.53;93.75
27210;BME280;14721;42.668;23.386;2023-03-18T01:30:42;95672.53;;;0.43;94.38
27210;BME280;14721;42.668;23.386;2023-03-18T01:33:08;95652.28;;;0.46;94.30
27210;BME280;14721;42.668;23.386;2023-03-18T01:35:35;95664.88;;;0.64;93.87
27210;BME280;14721;42.668;23.386;2023-03-18T01:38:03;95666.72;;;0.61;93.60
27210;BME280;14721;42.668;23.386;2023-03-18T01:40:31;95675.66;;;0.55;93.52
27210;BME280;14721;42.668;23.386;2023-03-18T01:43:13;95667.91;;;0.51;93.25
27210;BME280;14721;42.668;23.386;2023-03-18T01:45:43;95662.25;;;0.35;93.29
27210;BME280;14721;42.668;23.386;2023-03-18T01:48:14;95665.88;;;0.31;93.39
27210;BME280;14721;42.668;23.386;2023-03-18T01:50:42;95656.13;;;0.35;93.28
27210;BME280;14721;42.668;23.386;2023-03-18T01:53:11;95659.81;;;0.29;93.26
27210;BME280;14721;42.668;23.386;2023-03-18T01:55:39;95661.25;;;0.39;93.02
27210;BME280;14721;42.668;23.386;2023-03-18T01:58:17;95659.63;;;0.35;92.88
27210;BME280;14721;42.668;23.386;2023-03-18T02:00:50;95650.31;;;0.53;92.56
27210;BME280;14721;42.668;23.386;2023-03-18T02:03:18;95652.25;;;0.48;91.92
27210;BME280;14721;42.668;23.386;2023-03-18T02:05:44;95648.78;;;0.46;91.24
27210;BME280;14721;42.668;23.386;2023-03-18T02:08:10;95644.00;;;0.31;91.14
27210;BME280;14721;42.668;23.386;2023-03-18T02:10:37;95656.25;;;0.30;91.39
27210;BME280;14721;42.668;23.386;2023-03-18T02:13:06;95652.38;;;0.43;91.40
27210;BME280;14721;42.668;23.386;2023-03-18T02:15:33;95653.25;;;0.42;91.44
27210;BME280;14721;42.668;23.386;2023-03-18T02:18:09;95635.09;;;0.35;91.60
27210;BME280;14721;42.668;23.386;2023-03-18T02:23:44;95635.63;;;0.17;91.61
27210;BME280;14721;42.668;23.386;2023-03-18T02:28:49;95656.81;;;0.41;91.60
27210;BME280;14721;42.668;23.386;2023-03-18T02:31:17;95657.63;;;0.43;91.36
27210;BME280;14721;42.668;23.386;2023-03-18T02:33:43;95635.19;;;0.32;91.55
27210;BME280;14721;42.668;23.386;2023-03-18T02:36:18;95645.66;;;0.33;91.00
27210;BME280;14721;42.668;23.386;2023-03-18T02:38:46;95659.56;;;0.37;91.16
27210;BME280;14721;42.668;23.386;2023-03-18T02:41:20;95659.66;;;0.34;91.37
27210;BME280;14721;42.668;23.386;2023-03-18T02:43:46;95655.00;;;0.14;91.83
27210;BME280;14721;42.668;23.386;2023-03-18T02:46:28;95652.88;;;0.27;91.71
27210;BME280;14721;42.668;23.386;2023-03-18T02:48:58;95638.31;;;0.15;91.62
27210;BME280;14721;42.668;23.386;2023-03-18T02:51:25;95650.78;;;0.38;91.96
27210;BME280;14721;42.668;23.386;2023-03-18T02:53:54;95653.34;;;0.39;92.01
27210;BME280;14721;42.668;23.386;2023-03-18T02:56:22;95649.09;;;0.35;91.92
27210;BME280;14721;42.668;23.386;2023-03-18T02:58:47;95651.81;;;0.32;92.41
27210;BME280;14721;42.668;23.386;2023-03-18T03:01:13;95645.22;;;0.19;92.75
27210;BME280;14721;42.668;23.386;2023-03-18T03:03:39;95650.78;;;0.09;93.33
27210;BME280;14721;42.668;23.386;2023-03-18T03:06:06;95634.28;;;0.03;93.87
27210;BME280;14721;42.668;23.386;2023-03-18T03:08:33;95649.88;;;0.10;93.95
27210;BME280;14721;42.668;23.386;2023-03-18T03:10:59;95653.69;;;-0.01;94.62
27210;BME280;14721;42.668;23.386;2023-03-18T03:13:25;95654.69;;;-0.05;95.19
27210;BME280;14721;42.668;23.386;2023-03-18T03:15:52;95657.22;;;-0.02;96.03
27210;BME280;14721;42.668;23.386;2023-03-18T03:18:18;95657.00;;;0.04;96.09
27210;BME280;14721;42.668;23.386;2023-03-18T03:20:44;95655.59;;;-0.07;96.53
27210;BME280;14721;42.668;23.386;2023-03-18T03:23:13;95658.97;;;-0.02;96.83
27210;BME280;14721;42.668;23.386;2023-03-18T03:25:43;95661.81;;;-0.10;96.94
27210;BME280;14721;42.668;23.386;2023-03-18T03:28:10;95669.69;;;-0.10;97.23
27210;BME280;14721;42.668;23.386;2023-03-18T03:30:36;95660.91;;;-0.09;97.38
27210;BME280;14721;42.668;23.386;2023-03-18T03:33:03;95661.00;;;-0.12;97.42
27210;BME280;14721;42.668;23.386;2023-03-18T03:35:28;95669.56;;;-0.05;97.34
27210;BME280;14721;42.668;23.386;2023-03-18T03:37:54;95671.31;;;-0.06;97.26
27210;BME280;14721;42.668;23.386;2023-03-18T03:40:20;95669.66;;;-0.08;97.39
27210;BME280;14721;42.668;23.386;2023-03-18T03:42:46;95674.06;;;-0.10;97.24
27210;BME280;14721;42.668;23.386;2023-03-18T03:45:13;95663.66;;;-0.13;97.11
27210;BME280;14721;42.668;23.386;2023-03-18T03:47:40;95665.56;;;-0.18;97.08
27210;BME280;14721;42.668;23.386;2023-03-18T03:50:07;95660.56;;;-0.27;97.30
27210;BME280;14721;42.668;23.386;2023-03-18T03:52:34;95662.13;;;-0.20;97.47
27210;BME280;14721;42.668;23.386;2023-03-18T03:55:01;95671.75;;;-0.21;97.81
27210;BME280;14721;42.668;23.386;2023-03-18T03:57:26;95644.72;;;-0.24;97.59
27210;BME280;14721;42.668;23.386;2023-03-18T03:59:52;95668.31;;;-0.23;97.47
27210;BME280;14721;42.668;23.386;2023-03-18T04:02:18;95684.88;;;-0.21;97.51
27210;BME280;14721;42.668;23.386;2023-03-18T04:04:45;95673.63;;;-0.24;97.42
27210;BME280;14721;42.668;23.386;2023-03-18T04:07:11;95673.03;;;-0.35;97.40
27210;BME280;14721;42.668;23.386;2023-03-18T04:09:44;95684.16;;;-0.26;97.18
27210;BME280;14721;42.668;23.386;2023-03-18T04:12:13;95686.66;;;-0.21;96.91
27210;BME280;14721;42.668;23.386;2023-03-18T04:14:39;95686.19;;;-0.05;96.53
27210;BME280;14721;42.668;23.386;2023-03-18T04:17:04;95689.78;;;-0.09;95.97
27210;BME280;14721;42.668;23.386;2023-03-18T04:19:30;95687.94;;;-0.05;95.28
27210;BME280;14721;42.668;23.386;2023-03-18T04:21:58;95686.41;;;-0.12;95.13
27210;BME280;14721;42.668;23.386;2023-03-18T04:24:23;95694.91;;;-0.04;94.80
27210;BME280;14721;42.668;23.386;2023-03-18T04:26:50;95697.50;;;-0.03;94.84
27210;BME280;14721;42.668;23.386;2023-03-18T04:29:15;95684.63;;;-0.12;94.65
27210;BME280;14721;42.668;23.386;2023-03-18T04:31:41;95709.59;;;0.03;94.21
27210;BME280;14721;42.668;23.386;2023-03-18T04:34:07;95701.72;;;0.03;94.03
27210;BME280;14721;42.668;23.386;2023-03-18T04:36:33;95700.13;;;-0.33;94.38
27210;BME280;14721;42.668;23.386;2023-03-18T04:38:58;95710.25;;;-0.20;94.57
27210;BME280;14721;42.668;23.386;2023-03-18T04:41:25;95685.09;;;-0.28;94.56
27210;BME280;14721;42.668;23.386;2023-03-18T04:43:51;95713.50;;;-0.12;94.67
27210;BME280;14721;42.668;23.386;2023-03-18T04:46:16;95716.06;;;-0.09;94.78
27210;BME280;14721;42.668;23.386;2023-03-18T04:48:42;95731.22;;;0.13;94.72
27210;BME280;14721;42.668;23.386;2023-03-18T04:51:09;95726.06;;;0.10;94.48
27210;BME280;14721;42.668;23.386;2023-03-18T04:53:37;95732.66;;;-0.07;94.03
27210;BME280;14721;42.668;23.386;2023-03-18T04:56:03;95729.97;;;-0.05;93.69
27210;BME280;14721;42.668;23.386;2023-03-18T04:58:29;95720.31;;;-0.03;94.51
27210;BME280;14721;42.668;23.386;2023-03-18T05:00:55;95713.34;;;-0.06;94.36
27210;BME280;14721;42.668;23.386;2023-03-18T05:03:22;95718.34;;;0.03;94.29
27210;BME280;14721;42.668;23.386;2023-03-18T05:05:48;95723.22;;;0.17;94.00
27210;BME280;14721;42.668;23.386;2023-03-18T05:08:15;95731.97;;;0.18;93.92
27210;BME280;14721;42.668;23.386;2023-03-18T05:10:41;95732.94;;;0.44;94.38
27210;BME280;14721;42.668;23.386;2023-03-18T05:13:07;95715.16;;;0.54;93.21
27210;BME280;14721;42.668;23.386;2023-03-18T05:15:33;95719.16;;;0.65;92.39
27210;BME280;14721;42.668;23.386;2023-03-18T05:17:59;95715.19;;;0.80;91.39
27210;BME280;14721;42.668;23.386;2023-03-18T05:20:26;95706.88;;;0.93;90.27
27210;BME280;14721;42.668;23.386;2023-03-18T05:22:53;95708.94;;;1.11;89.31
27210;BME280;14721;42.668;23.386;2023-03-18T05:25:20;95702.59;;;1.18;88.35
27210;BME280;14721;42.668;23.386;2023-03-18T05:27:45;95707.41;;;1.32;88.20
27210;BME280;14721;42.668;23.386;2023-03-18T05:30:13;95712.19;;;1.47;87.36
27210;BME280;14721;42.668;23.386;2023-03-18T05:32:40;95644.75;;;1.41;86.93
27210;BME280;14721;42.668;23.386;2023-03-18T05:35:07;95703.72;;;1.88;86.24
27210;BME280;14721;42.668;23.386;2023-03-18T05:37:33;95708.78;;;2.19;85.01
27210;BME280;14721;42.668;23.386;2023-03-18T05:39:59;95711.09;;;2.51;83.44
27210;BME280;14721;42.668;23.386;2023-03-18T05:42:25;95709.50;;;2.91;81.63
27210;BME280;14721;42.668;23.386;2023-03-18T05:44:51;95711.84;;;3.43;80.47
27210;BME280;14721;42.668;23.386;2023-03-18T05:47:18;95707.59;;;3.81;78.43
27210;BME280;14721;42.668;23.386;2023-03-18T05:49:44;95714.34;;;4.28;74.65
27210;BME280;14721;42.668;23.386;2023-03-18T05:52:09;95715.38;;;4.83;71.45
27210;BME280;14721;42.668;23.386;2023-03-18T05:54:35;95728.16;;;6.19;68.89
27210;BME280;14721;42.668;23.386;2023-03-18T05:57:01;95723.44;;;7.23;63.98
27210;BME280;14721;42.668;23.386;2023-03-18T05:59:26;95721.81;;;7.20;62.04
27210;BME280;14721;42.668;23.386;2023-03-18T06:01:54;95723.94;;;7.45;61.26
27210;BME280;14721;42.668;23.386;2023-03-18T06:04:20;95723.28;;;7.41;61.10
27210;BME280;14721;42.668;23.386;2023-03-18T06:06:46;95723.63;;;7.66;60.06
27210;BME280;14721;42.668;23.386;2023-03-18T06:09:13;95719.00;;;7.70;60.24
27210;BME280;14721;42.668;23.386;2023-03-18T06:11:39;95723.50;;;7.84;58.71
27210;BME280;14721;42.668;23.386;2023-03-18T06:14:05;95702.97;;;8.01;59.08
27210;BME280;14721;42.668;23.386;2023-03-18T06:16:32;95723.44;;;8.30;57.24
27210;BME280;14721;42.668;23.386;2023-03-18T06:18:59;95727.47;;;8.37;56.85
27210;BME280;14721;42.668;23.386;2023-03-18T06:21:25;95722.78;;;8.27;57.88
27210;BME280;14721;42.668;23.386;2023-03-18T06:23:52;95721.97;;;8.54;56.86
27210;BME280;14721;42.668;23.386;2023-03-18T06:26:18;95700.66;;;8.40;56.99
27210;BME280;14721;42.668;23.386;2023-03-18T06:28:44;95709.88;;;8.49;57.39
27210;BME280;14721;42.668;23.386;2023-03-18T06:31:11;95717.91;;;8.63;56.41
27210;BME280;14721;42.668;23.386;2023-03-18T06:33:36;95708.44;;;8.87;56.57
27210;BME280;14721;42.668;23.386;2023-03-18T06:36:03;95706.50;;;9.03;55.85
27210;BME280;14721;42.668;23.386;2023-03-18T06:38:29;95699.25;;;9.33;55.64
27210;BME280;14721;42.668;23.386;2023-03-18T06:40:55;95703.25;;;9.40;54.75
27210;BME280;14721;42.668;23.386;2023-03-18T06:43:21;95697.56;;;9.32;54.20
27210;BME280;14721;42.668;23.386;2023-03-18T06:45:47;95692.75;;;9.92;53.90
27210;BME280;14721;42.668;23.386;2023-03-18T06:48:12;95701.72;;;9.91;53.19
27210;BME280;14721;42.668;23.386;2023-03-18T06:50:39;95695.19;;;9.13;54.23
27210;BME280;14721;42.668;23.386;2023-03-18T06:53:06;95691.38;;;9.31;54.43
27210;BME280;14721;42.668;23.386;2023-03-18T06:55:35;95702.75;;;9.62;53.85
27210;BME280;14721;42.668;23.386;2023-03-18T06:58:02;95696.69;;;9.86;53.31
27210;BME280;14721;42.668;23.386;2023-03-18T07:00:30;95694.03;;;9.72;53.75
27210;BME280;14721;42.668;23.386;2023-03-18T07:02:56;95699.34;;;9.86;53.14
27210;BME280;14721;42.668;23.386;2023-03-18T07:05:22;95674.19;;;9.76;52.69
27210;BME280;14721;42.668;23.386;2023-03-18T07:07:49;95684.22;;;10.13;52.05
27210;BME280;14721;42.668;23.386;2023-03-18T07:10:21;95689.25;;;10.18;51.71
27210;BME280;14721;42.668;23.386;2023-03-18T07:12:48;95687.69;;;10.53;51.49
27210;BME280;14721;42.668;23.386;2023-03-18T07:15:15;95686.72;;;10.41;51.58
27210;BME280;14721;42.668;23.386;2023-03-18T07:17:41;95699.47;;;9.97;51.42
27210;BME280;14721;42.668;23.386;2023-03-18T07:20:09;95689.25;;;10.04;51.26
27210;BME280;14721;42.668;23.386;2023-03-18T07:22:35;95689.75;;;10.23;51.82
27210;BME280;14721;42.668;23.386;2023-03-18T07:25:01;95699.41;;;10.25;51.37
27210;BME280;14721;42.668;23.386;2023-03-18T07:27:27;95693.44;;;10.47;51.90
27210;BME280;14721;42.668;23.386;2023-03-18T07:29:55;95697.25;;;10.30;51.52
27210;BME280;14721;42.668;23.386;2023-03-18T07:32:22;95701.09;;;10.26;51.89
27210;BME280;14721;42.668;23.386;2023-03-18T07:34:48;95697.78;;;10.99;51.07
27210;BME280;14721;42.668;23.386;2023-03-18T07:37:14;95701.63;;;11.82;48.46
27210;BME280;14721;42.668;23.386;2023-03-18T07:39:40;95687.16;;;11.35;48.59
27210;BME280;14721;42.668;23.386;2023-03-18T07:42:08;95692.69;;;11.70;49.95
27210;BME280;14721;42.668;23.386;2023-03-18T07:44:35;95702.00;;;11.52;49.00
27210;BME280;14721;42.668;23.386;2023-03-18T07:47:02;95698.19;;;10.81;49.70
27210;BME280;14721;42.668;23.386;2023-03-18T07:49:29;95685.16;;;10.76;50.57
27210;BME280;14721;42.668;23.386;2023-03-18T07:54:40;95688.56;;;11.16;50.81
27210;BME280;14721;42.668;23.386;2023-03-18T07:57:06;95698.41;;;10.90;49.67
27210;BME280;14721;42.668;23.386;2023-03-18T07:59:32;95685.06;;;11.03;50.51
27210;BME280;14721;42.668;23.386;2023-03-18T08:01:58;95692.28;;;11.51;50.14
27210;BME280;14721;42.668;23.386;2023-03-18T08:04:24;95685.97;;;11.39;49.93
27210;BME280;14721;42.668;23.386;2023-03-18T08:06:49;95685.56;;;11.82;49.75
27210;BME280;14721;42.668;23.386;2023-03-18T08:09:15;95680.44;;;11.79;49.26
27210;BME280;14721;42.668;23.386;2023-03-18T08:11:41;95691.47;;;11.74;48.33
27210;BME280;14721;42.668;23.386;2023-03-18T08:14:07;95692.53;;;11.84;48.17
27210;BME280;14721;42.668;23.386;2023-03-18T08:16:33;95697.22;;;12.17;48.60
27210;BME280;14721;42.668;23.386;2023-03-18T08:18:59;95693.22;;;11.99;47.53
27210;BME280;14721;42.668;23.386;2023-03-18T08:21:25;95688.00;;;11.85;48.29
27210;BME280;14721;42.668;23.386;2023-03-18T08:23:50;95699.94;;;12.51;48.03
27210;BME280;14721;42.668;23.386;2023-03-18T08:26:16;95692.38;;;12.22;47.39
27210;BME280;14721;42.668;23.386;2023-03-18T08:28:42;95696.28;;;11.82;49.05
27210;BME280;14721;42.668;23.386;2023-03-18T08:31:08;95695.66;;;11.78;48.71
27210;BME280;14721;42.668;23.386;2023-03-18T08:33:34;95693.34;;;11.97;48.90
27210;BME280;14721;42.668;23.386;2023-03-18T08:36:00;95690.81;;;11.83;49.16
27210;BME280;14721;42.668;23.386;2023-03-18T08:38:26;95692.53;;;11.84;48.88
27210;BME280;14721;42.668;23.386;2023-03-18T08:40:52;95699.50;;;11.74;48.60
27210;BME280;14721;42.668;23.386;2023-03-18T08:43:18;95689.50;;;11.53;49.01
27210;BME280;14721;42.668;23.386;2023-03-18T08:45:52;95688.03;;;11.11;49.29
27210;BME280;14721;42.668;23.386;2023-03-18T08:48:19;95693.94;;;10.91;51.57
27210;BME280;14721;42.668;23.386;2023-03-18T08:50:45;95686.31;;;10.47;50.02
27210;BME280;14721;42.668;23.386;2023-03-18T08:53:14;95692.28;;;10.51;50.00
27210;BME280;14721;42.668;23.386;2023-03-18T08:55:39;95680.06;;;10.34;50.76
27210;BME280;14721;42.668;23.386;2023-03-18T08:58:06;95691.69;;;10.21;51.99
27210;BME280;14721;42.668;23.386;2023-03-18T09:00:37;95689.47;;;10.01;52.76
27210;BME280;14721;42.668;23.386;2023-03-18T09:03:04;95701.84;;;10.02;52.91
27210;BME280;14721;42.668;23.386;2023-03-18T09:05:30;95695.66;;;10.01;52.27
27210;BME280;14721;42.668;23.386;2023-03-18T09:07:57;95691.47;;;9.71;52.10
27210;BME280;14721;42.668;23.386;2023-03-18T09:10:24;95695.09;;;9.70;52.80
27210;BME280;14721;42.668;23.386;2023-03-18T09:12:49;95699.59;;;9.55;53.74
27210;BME280;14721;42.668;23.386;2023-03-18T09:15:16;95696.94;;;9.55;53.68
27210;BME280;14721;42.668;23.386;2023-03-18T09:17:45;95696.88;;;9.42;52.95
27210;BME280;14721;42.668;23.386;2023-03-18T09:20:14;95701.25;;;9.43;53.93
27210;BME280;14721;42.668;23.386;2023-03-18T09:22:41;95702.00;;;9.45;52.79
27210;BME280;14721;42.668;23.386;2023-03-18T09:25:07;95700.81;;;9.23;52.43
27210;BME280;14721;42.668;23.386;2023-03-18T09:27:33;95705.91;;;9.54;52.42
27210;BME280;14721;42.668;23.386;2023-03-18T09:29:59;95710.69;;;9.35;49.26
27210;BME280;14721;42.668;23.386;2023-03-18T09:32:25;95700.50;;;8.99;50.19
27210;BME280;14721;42.668;23.386;2023-03-18T09:34:51;95699.16;;;9.20;49.79
27210;BME280;14721;42.668;23.386;2023-03-18T09:37:23;95704.34;;;9.64;50.10
27210;BME280;14721;42.668;23.386;2023-03-18T09:39:49;95693.28;;;9.70;50.40
27210;BME280;14721;42.668;23.386;2023-03-18T09:42:43;95688.09;;;9.54;48.13
27210;BME280;14721;42.668;23.386;2023-03-18T09:45:22;95696.09;;;9.54;49.09
27210;BME280;14721;42.668;23.386;2023-03-18T09:56:03;95700.00;;;9.49;48.84
27210;BME280;14721;42.668;23.386;2023-03-18T09:58:50;95686.78;;;9.33;48.04
27210;BME280;14721;42.668;23.386;2023-03-18T10:01:20;95700.97;;;9.34;48.60
27210;BME280;14721;42.668;23.386;2023-03-18T10:04:08;95693.53;;;9.25;48.91
27210;BME280;14721;42.668;23.386;2023-03-18T10:06:36;95704.41;;;9.22;47.73
27210;BME280;14721;42.668;23.386;2023-03-18T10:11:38;95689.94;;;8.98;49.38
27210;BME280;14721;42.668;23.386;2023-03-18T10:19:20;95692.41;;;9.01;45.31
27210;BME280;14721;42.668;23.386;2023-03-18T10:22:42;95689.28;;;9.08;45.67
27210;BME280;14721;42.668;23.386;2023-03-18T10:32:24;95677.34;;;9.28;42.56
27210;BME280;14721;42.668;23.386;2023-03-18T10:40:17;95671.09;;;9.15;42.56
27210;BME280;14721;42.668;23.386;2023-03-18T10:42:44;95684.91;;;9.21;43.28
27210;BME280;14721;42.668;23.386;2023-03-18T10:45:23;95681.31;;;9.49;43.54
27210;BME280;14721;42.668;23.386;2023-03-18T10:53:28;95671.94;;;9.97;42.20
27210;BME280;14721;42.668;23.386;2023-03-18T10:56:06;95661.13;;;9.86;39.55
27210;BME280;14721;42.668;23.386;2023-03-18T10:58:33;95663.88;;;9.84;40.35
27210;BME280;14721;42.668;23.386;2023-03-18T11:00:59;95667.34;;;9.99;39.60
27210;BME280;14721;42.668;23.386;2023-03-18T11:06:01;95664.44;;;9.89;38.81
27210;BME280;14721;42.668;23.386;2023-03-18T11:08:36;95655.72;;;9.73;38.59
27210;BME280;14721;42.668;23.386;2023-03-18T11:11:27;95660.56;;;9.40;39.28
27210;BME280;14721;42.668;23.386;2023-03-18T11:13:59;95655.72;;;9.32;39.48
27210;BME280;14721;42.668;23.386;2023-03-18T11:16:38;95658.44;;;9.18;39.71
27210;BME280;14721;42.668;23.386;2023-03-18T11:21:46;95661.94;;;9.19;40.25
27210;BME280;14721;42.668;23.386;2023-03-18T11:24:24;95660.16;;;9.19;40.85
27210;BME280;14721;42.668;23.386;2023-03-18T11:27:00;95660.38;;;9.43;40.94
27210;BME280;14721;42.668;23.386;2023-03-18T11:29:30;95656.31;;;9.64;39.92
27210;BME280;14721;42.668;23.386;2023-03-18T11:32:00;95653.44;;;9.67;39.50
27210;BME280;14721;42.668;23.386;2023-03-18T11:34:28;95628.50;;;9.68;39.74
27210;BME280;14721;42.668;23.386;2023-03-18T11:36:59;95653.00;;;9.87;42.11
27210;BME280;14721;42.668;23.386;2023-03-18T11:39:37;95646.00;;;9.72;41.69
27210;BME280;14721;42.668;23.386;2023-03-18T11:42:16;95647.50;;;9.76;41.57
27210;BME280;14721;42.668;23.386;2023-03-18T11:44:42;95643.50;;;9.83;40.92
27210;BME280;14721;42.668;23.386;2023-03-18T11:47:14;95635.88;;;10.04;40.63
27210;BME280;14721;42.668;23.386;2023-03-18T11:49:43;95629.31;;;10.34;39.81
27210;BME280;14721;42.668;23.386;2023-03-18T11:52:22;95635.75;;;10.44;39.38
27210;BME280;14721;42.668;23.386;2023-03-18T11:55:12;95641.53;;;10.38;38.50
27210;BME280;14721;42.668;23.386;2023-03-18T12:00:43;95641.06;;;10.19;39.97
27210;BME280;14721;42.668;23.386;2023-03-18T12:03:55;95644.69;;;10.18;41.65
27210;BME280;14721;42.668;23.386;2023-03-18T12:06:34;95647.44;;;10.17;42.01
27210;BME280;14721;42.668;23.386;2023-03-18T12:14:43;95636.38;;;10.35;41.49
27210;BME280;14721;42.668;23.386;2023-03-18T12:20:02;95644.69;;;10.18;40.46
27210;BME280;14721;42.668;23.386;2023-03-18T12:22:43;95646.16;;;9.83;39.62
27210;BME280;14721;42.668;23.386;2023-03-18T12:25:22;95645.75;;;9.63;39.69
27210;BME280;14721;42.668;23.386;2023-03-18T12:28:02;95638.25;;;9.55;40.47
27210;BME280;14721;42.668;23.386;2023-03-18T12:30:48;95642.56;;;9.43;42.04
27210;BME280;14721;42.668;23.386;2023-03-18T12:39:16;95629.50;;;9.53;42.83
27210;BME280;14721;42.668;23.386;2023-03-18T12:44:30;95629.50;;;9.53;41.48
27210;BME280;14721;42.668;23.386;2023-03-18T12:52:28;95639.97;;;9.56;40.71
27210;BME280;14721;42.668;23.386;2023-03-18T13:03:40;95632.16;;;9.80;39.25
27210;BME280;14721;42.668;23.386;2023-03-18T13:08:53;95623.09;;;9.82;39.37
27210;BME280;14721;42.668;23.386;2023-03-18T13:16:46;95625.44;;;9.74;40.20
27210;BME280;14721;42.668;23.386;2023-03-18T13:19:14;95621.59;;;9.78;40.04
27210;BME280;14721;42.668;23.386;2023-03-18T13:21:49;95632.16;;;9.80;39.83
27210;BME280;14721;42.668;23.386;2023-03-18T13:24:40;95633.13;;;9.79;39.35
27210;BME280;14721;42.668;23.386;2023-03-18T13:27:30;95622.41;;;9.66;38.83
27210;BME280;14721;42.668;23.386;2023-03-18T13:33:02;95631.69;;;9.73;37.49
27210;BME280;14721;42.668;23.386;2023-03-18T13:44:09;95614.75;;;9.74;37.76
27210;BME280;14721;42.668;23.386;2023-03-18T13:46:39;95616.06;;;9.81;37.09
27210;BME280;14721;42.668;23.386;2023-03-18T13:49:16;95607.22;;;9.93;36.56
27210;BME280;14721;42.668;23.386;2023-03-18T13:51:49;95604.53;;;10.07;36.51
27210;BME280;14721;42.668;23.386;2023-03-18T13:54:15;95607.97;;;10.22;36.56
27210;BME280;14721;42.668;23.386;2023-03-18T13:56:56;95602.47;;;10.11;36.21
27210;BME280;14721;42.668;23.386;2023-03-18T14:05:37;95603.56;;;10.08;36.50
27210;BME280;14721;42.668;23.386;2023-03-18T14:08:34;95594.69;;;9.81;36.09
27210;BME280;14721;42.668;23.386;2023-03-18T14:11:43;95602.03;;;9.78;36.54
27210;BME280;14721;42.668;23.386;2023-03-18T14:17:02;95599.31;;;9.92;35.95
27210;BME280;14721;42.668;23.386;2023-03-18T14:19:30;95593.09;;;9.79;35.85
27210;BME280;14721;42.668;23.386;2023-03-18T14:22:22;95605.31;;;9.95;35.63
27210;BME280;14721;42.668;23.386;2023-03-18T14:32:58;95601.78;;;10.34;35.44
27210;BME280;14721;42.668;23.386;2023-03-18T14:35:34;95601.63;;;10.23;35.26
27210;BME280;14721;42.668;23.386;2023-03-18T14:38:34;95602.97;;;10.03;35.25
27210;BME280;14721;42.668;23.386;2023-03-18T14:41:04;95603.78;;;9.91;35.42
27210;BME280;14721;42.668;23.386;2023-03-18T14:43:40;95605.22;;;9.97;35.65
27210;BME280;14721;42.668;23.386;2023-03-18T14:46:14;95609.16;;;10.04;34.99
27210;BME280;14721;42.668;23.386;2023-03-18T14:48:42;95599.56;;;10.01;34.72
27210;BME280;14721;42.668;23.386;2023-03-18T14:51:16;95612.91;;;10.01;34.92
27210;BME280;14721;42.668;23.386;2023-03-18T14:53:52;95600.38;;;9.89;34.58
27210;BME280;14721;42.668;23.386;2023-03-18T14:56:23;95617.66;;;9.84;34.27
27210;BME280;14721;42.668;23.386;2023-03-18T14:58:53;95609.81;;;9.68;34.95
27210;BME280;14721;42.668;23.386;2023-03-18T15:01:33;95615.94;;;9.83;34.88
27210;BME280;14721;42.668;23.386;2023-03-18T15:04:00;95606.56;;;9.90;34.82
27210;BME280;14721;42.668;23.386;2023-03-18T15:06:27;95619.38;;;9.85;34.11
27210;BME280;14721;42.668;23.386;2023-03-18T15:09:03;95609.22;;;9.77;35.30